Time;durP1;ratioP1;P1;durP2;ratioP2;P2;SDS_P1;SDS_P2;PMS_P1;PMS_P2;Temp;Humidity;BMP_temperature;BMP_pressure;BME280_temperature;BME280_humidity;BME280_pressure;Samples;Min_cycle;Max_cycle;Signal;HPM_P1;HPM_P2
2022/09/26 00:02:10;;;;;;;0.30;0.30;;;;;;;;;;4982133;28;20038;-90
2022/09/26 00:04:36;;;;;;;0.30;0.30;;;;;;;;;;4981907;28;20088;-91
2022/09/26 00:07:02;;;;;;;0.20;0.20;;;;;;;;;;4981931;28;20092;-91
2022/09/26 00:09:28;;;;;;;0.20;0.20;;;;;;;;;;4981776;28;20128;-90
2022/09/26 00:11:55;;;;;;;0.22;0.22;;;;;;;;;;4981837;28;20483;-91
2022/09/26 00:14:23;;;;;;;0.20;0.20;;;;;;;;;;4981764;28;20045;-90
2022/09/26 00:16:49;;;;;;;0.50;0.50;;;;;;;;;;4981712;28;20375;-91
2022/09/26 00:19:15;;;;;;;0.30;0.30;;;;;;;;;;4981836;28;20103;-90
2022/09/26 00:21:41;;;;;;;0.10;0.10;;;;;;;;;;4981777;28;20057;-90
2022/09/26 00:24:07;;;;;;;0.15;0.15;;;;;;;;;;4981496;28;20494;-90
2022/09/26 00:26:35;;;;;;;0.10;0.10;;;;;;;;;;4981679;28;20128;-91
2022/09/26 00:29:03;;;;;;;0.30;0.30;;;;;;;;;;4997771;28;20034;-91
2022/09/26 00:31:33;;;;;;;0.25;0.25;;;;;;;;;;4981671;28;20081;-91
2022/09/26 00:33:59;;;;;;;0.22;0.22;;;;;;;;;;4981054;28;20069;-91
2022/09/26 00:36:26;;;;;;;0.20;0.20;;;;;;;;;;4980599;28;20454;-90
2022/09/26 00:38:52;;;;;;;0.20;0.20;;;;;;;;;;4997342;28;20399;-90
2022/09/26 00:41:18;;;;;;;0.20;0.20;;;;;;;;;;4980894;28;20092;-90
2022/09/26 00:43:49;;;;;;;0.22;0.22;;;;;;;;;;4981332;28;20442;-90
2022/09/26 00:46:14;;;;;;;0.10;0.10;;;;;;;;;;4981272;28;20048;-91
2022/09/26 00:48:41;;;;;;;0.22;0.22;;;;;;;;;;4981108;28;20117;-90
2022/09/26 00:51:08;;;;;;;0.20;0.20;;;;;;;;;;4980756;28;20048;-91
2022/09/26 00:53:43;;;;;;;0.30;0.30;;;;;;;;;;4981117;28;20050;-91
2022/09/26 00:56:21;;;;;;;0.32;0.32;;;;;;;;;;4980834;28;20048;-90
2022/09/26 00:58:49;;;;;;;0.30;0.30;;;;;;;;;;4980807;28;20412;-90
2022/09/26 01:01:15;;;;;;;0.20;0.20;;;;;;;;;;4980720;28;20080;-89
2022/09/26 01:03:42;;;;;;;0.10;0.10;;;;;;;;;;4981145;28;20042;-90
2022/09/26 01:06:08;;;;;;;0.17;0.17;;;;;;;;;;4980658;28;20042;-90
2022/09/26 01:08:37;;;;;;;0.30;0.30;;;;;;;;;;4980869;28;20046;-91
2022/09/26 01:11:03;;;;;;;0.10;0.10;;;;;;;;;;4980349;28;20140;-90
2022/09/26 01:13:31;;;;;;;0.10;0.10;;;;;;;;;;4996781;28;20048;-90
2022/09/26 01:15:57;;;;;;;0.20;0.20;;;;;;;;;;4980474;28;20033;-90
2022/09/26 01:18:23;;;;;;;0.20;0.20;;;;;;;;;;4980471;28;20125;-90
2022/09/26 01:20:58;;;;;;;0.20;0.20;;;;;;;;;;4980383;28;20038;-90
2022/09/26 01:23:40;;;;;;;0.20;0.20;;;;;;;;;;4980807;28;20046;-90
2022/09/26 01:26:12;;;;;;;0.20;0.20;;;;;;;;;;4980421;28;20113;-90
2022/09/26 01:28:48;;;;;;;0.17;0.17;;;;;;;;;;4980580;28;20049;-90
2022/09/26 01:31:14;;;;;;;;;;;;;;;;;;4980333;28;20042;-90
2022/09/26 01:33:43;;;;;;;0.20;0.20;;;;;;;;;;4996313;28;19921;-90
2022/09/26 01:36:09;;;;;;;0.10;0.10;;;;;;;;;;4980383;28;20044;-90
2022/09/26 01:38:41;;;;;;;0.20;0.20;;;;;;;;;;4980190;28;20121;-90
2022/09/26 01:41:25;;;;;;;0.30;0.30;;;;;;;;;;4979934;28;20124;-90
2022/09/26 01:43:56;;;;;;;0.20;0.20;;;;;;;;;;4979989;28;20099;-90
2022/09/26 01:46:31;;;;;;;0.20;0.20;;;;;;;;;;4979900;28;20042;-90
2022/09/26 01:49:06;;;;;;;0.20;0.20;;;;;;;;;;4979663;28;20177;-89
2022/09/26 01:51:36;;;;;;;0.10;0.10;;;;;;;;;;4980355;28;20067;-90
2022/09/26 01:54:06;;;;;;;0.20;0.20;;;;;;;;;;4980138;28;20046;-90
2022/09/26 01:56:35;;;;;;;0.20;0.20;;;;;;;;;;4979796;28;20132;-90
2022/09/26 01:59:06;;;;;;;0.20;0.20;;;;;;;;;;4979690;28;20041;-90
2022/09/26 02:01:34;;;;;;;0.30;0.30;;;;;;;;;;4979902;28;20042;-91
2022/09/26 02:04:04;;;;;;;0.20;0.20;;;;;;;;;;4979841;28;20045;-90
2022/09/26 02:06:30;;;;;;;0.13;0.13;;;;;;;;;;4979853;28;20081;-91
2022/09/26 02:08:59;;;;;;;0.22;0.22;;;;;;;;;;4979425;28;20099;-90
2022/09/26 02:11:26;;;;;;;0.20;0.20;;;;;;;;;;4979835;28;20499;-91
2022/09/26 02:13:55;;;;;;;0.22;0.22;;;;;;;;;;4979910;28;20498;-91
2022/09/26 02:16:24;;;;;;;0.10;0.10;;;;;;;;;;4979697;28;20034;-90
2022/09/26 02:18:54;;;;;;;0.20;0.20;;;;;;;;;;4979914;28;20046;-90
2022/09/26 02:21:21;;;;;;;0.30;0.30;;;;;;;;;;4979380;28;20037;-90
2022/09/26 02:23:48;;;;;;;0.20;0.20;;;;;;;;;;4979985;28;20129;-90
2022/09/26 02:26:14;;;;;;;0.20;0.20;;;;;;;;;;4979715;28;20046;-91
2022/09/26 02:28:41;;;;;;;0.22;0.22;;;;;;;;;;4995556;28;20081;-91
2022/09/26 02:31:07;;;;;;;0.22;0.22;;;;;;;;;;4979156;28;20104;-91
2022/09/26 02:33:34;;;;;;;0.30;0.30;;;;;;;;;;4979628;28;20042;-90
2022/09/26 02:36:01;;;;;;;0.20;0.20;;;;;;;;;;4979417;28;20107;-91
2022/09/26 02:38:28;;;;;;;0.10;0.10;;;;;;;;;;4979445;28;20069;-91
2022/09/26 02:40:57;;;;;;;0.20;0.20;;;;;;;;;;4979502;28;20483;-90
2022/09/26 02:43:31;;;;;;;0.25;0.25;;;;;;;;;;4979468;28;20034;-91
2022/09/26 02:46:05;;;;;;;0.30;0.30;;;;;;;;;;4979663;28;20038;-90
2022/09/26 02:48:40;;;;;;;0.32;0.32;;;;;;;;;;4979445;28;20494;-90
2022/09/26 02:51:19;;;;;;;0.30;0.30;;;;;;;;;;4979328;28;20046;-89
2022/09/26 02:53:51;;;;;;;0.10;0.10;;;;;;;;;;4979584;28;20499;-90
2022/09/26 02:56:34;;;;;;;0.40;0.40;;;;;;;;;;4995529;28;20398;-91
2022/09/26 02:59:06;;;;;;;0.10;0.10;;;;;;;;;;4981346;28;20041;-90
2022/09/26 03:01:47;;;;;;;0.22;0.22;;;;;;;;;;4983191;28;20395;-90
2022/09/26 03:04:22;;;;;;;0.20;0.20;;;;;;;;;;4999425;28;20046;-90
2022/09/26 03:06:50;;;;;;;0.20;0.20;;;;;;;;;;4999266;28;20044;-89
2022/09/26 03:09:18;;;;;;;0.10;0.10;;;;;;;;;;4982250;28;20125;-89
2022/09/26 03:11:45;;;;;;;0.30;0.30;;;;;;;;;;4982710;28;20041;-89
2022/09/26 03:14:11;;;;;;;0.20;0.20;;;;;;;;;;4982411;28;20063;-89
2022/09/26 03:16:39;;;;;;;0.17;0.17;;;;;;;;;;4998731;28;20042;-89
2022/09/26 03:19:11;;;;;;;0.20;0.20;;;;;;;;;;4982493;28;20493;-89
2022/09/26 03:21:37;;;;;;;0.10;0.10;;;;;;;;;;4982638;28;20069;-89
2022/09/26 03:24:03;;;;;;;0.10;0.10;;;;;;;;;;4982544;28;20078;-88
2022/09/26 03:26:30;;;;;;;0.10;0.10;;;;;;;;;;4998941;28;20487;-89
2022/09/26 03:28:56;;;;;;;0.20;0.20;;;;;;;;;;4982403;28;20743;-89
2022/09/26 03:31:24;;;;;;;0.20;0.20;;;;;;;;;;4982215;28;20048;-89
2022/09/26 03:33:53;;;;;;;0.10;0.10;;;;;;;;;;4982495;28;20075;-89
2022/09/26 03:36:21;;;;;;;0.35;0.35;;;;;;;;;;4982096;28;20038;-89
2022/09/26 03:38:47;;;;;;;0.10;0.10;;;;;;;;;;4982371;28;20038;-88
2022/09/26 03:41:13;;;;;;;0.10;0.10;;;;;;;;;;4982109;28;20482;-88
2022/09/26 03:43:42;;;;;;;0.10;0.10;;;;;;;;;;4982261;28;20038;-89
2022/09/26 03:46:09;;;;;;;0.38;0.38;;;;;;;;;;4982197;28;20099;-88
2022/09/26 03:48:35;;;;;;;0.38;0.38;;;;;;;;;;4982033;28;20049;-88
2022/09/26 03:51:05;;;;;;;0.20;0.20;;;;;;;;;;4981594;28;20073;-88
2022/09/26 03:53:32;;;;;;;0.30;0.30;;;;;;;;;;4982071;28;20046;-88
2022/09/26 03:56:25;;;;;;;0.30;0.30;;;;;;;;;;4981604;28;20530;-88
2022/09/26 03:58:51;;;;;;;0.20;0.20;;;;;;;;;;4979474;28;20108;-87
2022/09/26 04:01:19;;;;;;;0.20;0.20;;;;;;;;;;4981399;28;20096;-87
2022/09/26 04:03:45;;;;;;;0.20;0.20;;;;;;;;;;4998427;28;20672;-88
2022/09/26 04:06:14;;;;;;;0.20;0.20;;;;;;;;;;4989488;28;20034;-88
2022/09/26 04:08:41;;;;;;;0.30;0.30;;;;;;;;;;5000731;28;20084;-88
2022/09/26 04:11:08;;;;;;;0.20;0.20;;;;;;;;;;5012708;28;20060;-88
2022/09/26 04:13:34;;;;;;;0.30;0.30;;;;;;;;;;5000632;28;20045;-88
2022/09/26 04:16:01;;;;;;;0.20;0.20;;;;;;;;;;5016673;28;20052;-88
2022/09/26 04:18:27;;;;;;;0.20;0.20;;;;;;;;;;5000677;28;20082;-89
2022/09/26 04:20:57;;;;;;;0.20;0.20;;;;;;;;;;5000390;28;20041;-88
2022/09/26 04:23:24;;;;;;;0.20;0.20;;;;;;;;;;5000769;28;20076;-88
2022/09/26 04:25:50;;;;;;;0.28;0.28;;;;;;;;;;5000571;28;20081;-88
2022/09/26 04:28:16;;;;;;;0.30;0.30;;;;;;;;;;5000721;28;20049;-88
2022/09/26 04:30:42;;;;;;;0.20;0.20;;;;;;;;;;5000127;28;20038;-88
2022/09/26 04:33:07;;;;;;;0.30;0.30;;;;;;;;;;5000409;28;20076;-88
2022/09/26 04:35:34;;;;;;;0.28;0.28;;;;;;;;;;5000335;28;20037;-88
2022/09/26 04:38:00;;;;;;;0.30;0.30;;;;;;;;;;5000424;28;20072;-88
2022/09/26 04:40:26;;;;;;;0.20;0.20;;;;;;;;;;5016413;28;20470;-87
2022/09/26 04:42:51;;;;;;;0.20;0.20;;;;;;;;;;5000028;28;20073;-88
2022/09/26 04:45:17;;;;;;;0.22;0.22;;;;;;;;;;5000028;28;20037;-88
2022/09/26 04:47:43;;;;;;;0.20;0.20;;;;;;;;;;4999859;28;20041;-87
2022/09/26 04:50:09;;;;;;;0.30;0.30;;;;;;;;;;4999873;28;20429;-88
2022/09/26 04:52:35;;;;;;;0.20;0.20;;;;;;;;;;5000066;28;20107;-88
2022/09/26 04:55:02;;;;;;;0.13;0.13;;;;;;;;;;4999916;28;20042;-88
2022/09/26 04:57:29;;;;;;;0.20;0.20;;;;;;;;;;4999947;28;20041;-89
2022/09/26 04:59:54;;;;;;;0.35;0.35;;;;;;;;;;4999486;28;20463;-88
2022/09/26 05:02:20;;;;;;;0.20;0.20;;;;;;;;;;5000095;28;20064;-89
2022/09/26 05:04:47;;;;;;;0.30;0.30;;;;;;;;;;4999941;28;20053;-89
2022/09/26 05:07:15;;;;;;;0.20;0.20;;;;;;;;;;5016224;28;20041;-88
2022/09/26 05:09:41;;;;;;;0.40;0.40;;;;;;;;;;4999502;28;20041;-88
2022/09/26 05:12:08;;;;;;;0.20;0.20;;;;;;;;;;4999805;28;20074;-88
2022/09/26 05:14:36;;;;;;;1.20;0.85;;;;;;;;;;4991689;28;20052;-88
2022/09/26 05:17:03;;;;;;;0.30;0.30;;;;;;;;;;5011672;28;20069;-87
2022/09/26 05:19:29;;;;;;;0.30;0.30;;;;;;;;;;4999018;28;20040;-88
2022/09/26 05:21:55;;;;;;;0.15;0.15;;;;;;;;;;4999141;28;20379;-88
2022/09/26 05:27:07;;;;;;;0.10;0.10;;;;;;;;;;5012484;28;20094;-87
2022/09/26 05:29:33;;;;;;;0.30;0.30;;;;;;;;;;5015298;28;20041;-88
2022/09/26 05:32:00;;;;;;;0.30;0.30;;;;;;;;;;4999231;28;20053;-88
2022/09/26 05:34:26;;;;;;;0.30;0.30;;;;;;;;;;4998936;28;20048;-88
2022/09/26 05:36:52;;;;;;;0.22;0.22;;;;;;;;;;4999120;28;20040;-88
2022/09/26 05:42:07;;;;;;;0.30;0.30;;;;;;;;;;5012027;28;20048;-88
2022/09/26 05:44:33;;;;;;;0.28;0.28;;;;;;;;;;4995560;28;20029;-88
2022/09/26 05:46:59;;;;;;;0.25;0.25;;;;;;;;;;5015749;28;20056;-88
2022/09/26 05:49:26;;;;;;;0.20;0.20;;;;;;;;;;4999031;28;20116;-88
2022/09/26 05:51:52;;;;;;;0.30;0.30;;;;;;;;;;4999080;28;20041;-88
2022/09/26 05:54:18;;;;;;;0.30;0.30;;;;;;;;;;4998890;28;20037;-88
2022/09/26 05:56:44;;;;;;;0.20;0.20;;;;;;;;;;4998521;28;20148;-88
2022/09/26 05:59:10;;;;;;;0.30;0.30;;;;;;;;;;4998764;28;20520;-88
2022/09/26 06:01:36;;;;;;;0.30;0.30;;;;;;;;;;4998882;28;20037;-89
2022/09/26 06:04:02;;;;;;;0.30;0.30;;;;;;;;;;4999231;28;20128;-88
2022/09/26 06:06:31;;;;;;;0.20;0.20;;;;;;;;;;4999281;28;20060;-88
2022/09/26 06:08:57;;;;;;;0.20;0.20;;;;;;;;;;4998832;28;20033;-89
2022/09/26 06:11:29;;;;;;;0.30;0.30;;;;;;;;;;4999323;28;20083;-88
2022/09/26 06:13:58;;;;;;;0.30;0.30;;;;;;;;;;4999258;28;20037;-88
2022/09/26 06:16:24;;;;;;;0.20;0.20;;;;;;;;;;4998736;28;20898;-88
2022/09/26 06:18:51;;;;;;;0.40;0.40;;;;;;;;;;4998576;28;20060;-88
2022/09/26 06:21:18;;;;;;;0.22;0.22;;;;;;;;;;4998770;28;20471;-89
2022/09/26 06:23:44;;;;;;;0.30;0.30;;;;;;;;;;4999074;28;20030;-88
2022/09/26 06:26:21;;;;;;;0.30;0.30;;;;;;;;;;4999041;28;20065;-89
2022/09/26 06:28:48;;;;;;;0.30;0.30;;;;;;;;;;4998878;28;20388;-88
2022/09/26 06:31:15;;;;;;;0.20;0.20;;;;;;;;;;4998541;28;20034;-89
2022/09/26 06:33:42;;;;;;;0.20;0.20;;;;;;;;;;5000486;28;20096;-89
2022/09/26 06:36:09;;;;;;;0.20;0.20;;;;;;;;;;5002447;28;20123;-89
2022/09/26 06:38:35;;;;;;;0.30;0.30;;;;;;;;;;5002931;28;20033;-89
2022/09/26 06:41:01;;;;;;;0.40;0.40;;;;;;;;;;5002723;28;20044;-88
2022/09/26 06:43:28;;;;;;;0.20;0.20;;;;;;;;;;4998717;28;20414;-89
2022/09/26 06:45:53;;;;;;;0.30;0.30;;;;;;;;;;5019005;28;20479;-89
2022/09/26 06:48:24;;;;;;;0.20;0.20;;;;;;;;;;5002869;28;20049;-89
2022/09/26 06:50:50;;;;;;;0.20;0.20;;;;;;;;;;5002386;28;20484;-89
2022/09/26 06:53:16;;;;;;;0.30;0.30;;;;;;;;;;5003009;28;20419;-89
2022/09/26 06:55:42;;;;;;;0.20;0.20;;;;;;;;;;5002581;28;20038;-89
2022/09/26 06:58:08;;;;;;;0.13;0.13;;;;;;;;;;5002608;28;20034;-89
2022/09/26 07:00:34;;;;;;;0.20;0.20;;;;;;;;;;5018636;28;20030;-88
2022/09/26 07:03:00;;;;;;;0.40;0.40;;;;;;;;;;5002767;28;20124;-88
2022/09/26 07:05:27;;;;;;;0.30;0.30;;;;;;;;;;4997911;28;20041;-88
2022/09/26 07:07:54;;;;;;;0.20;0.20;;;;;;;;;;5002224;28;20077;-89
2022/09/26 07:10:20;;;;;;;0.10;0.10;;;;;;;;;;5001902;28;20033;-89
2022/09/26 07:12:46;;;;;;;0.30;0.30;;;;;;;;;;5002564;28;20079;-89
2022/09/26 07:15:13;;;;;;;0.20;0.20;;;;;;;;;;5001684;28;20041;-89
2022/09/26 07:17:40;;;;;;;0.20;0.20;;;;;;;;;;5002544;28;20120;-89
2022/09/26 07:20:08;;;;;;;0.20;0.20;;;;;;;;;;5002273;28;20041;-89
2022/09/26 07:22:34;;;;;;;0.20;0.20;;;;;;;;;;5002036;28;20068;-87
2022/09/26 07:25:00;;;;;;;0.32;0.32;;;;;;;;;;5018383;28;20049;-88
2022/09/26 07:27:26;;;;;;;0.20;0.20;;;;;;;;;;5002206;28;20102;-88
2022/09/26 07:29:52;;;;;;;0.30;0.30;;;;;;;;;;5001974;28;20060;-89
2022/09/26 07:32:18;;;;;;;0.20;0.20;;;;;;;;;;5001018;28;20053;-88
2022/09/26 07:34:45;;;;;;;0.30;0.30;;;;;;;;;;5000240;28;20037;-88
2022/09/26 07:37:11;;;;;;;0.10;0.10;;;;;;;;;;5000610;28;20037;-88
2022/09/26 07:39:37;;;;;;;0.10;0.10;;;;;;;;;;5000115;28;20037;-88
2022/09/26 07:42:03;;;;;;;0.20;0.20;;;;;;;;;;5000373;28;20041;-88
2022/09/26 07:44:29;;;;;;;0.40;0.40;;;;;;;;;;5000047;28;20524;-86
2022/09/26 07:52:26;;;;;;;0.20;0.20;;;;;;;;;;5012751;28;20061;-89
2022/09/26 07:54:52;;;;;;;0.40;0.40;;;;;;;;;;5000601;28;20041;-89
2022/09/26 07:57:18;;;;;;;0.20;0.20;;;;;;;;;;5016722;28;20042;-89
2022/09/26 07:59:44;;;;;;;0.20;0.20;;;;;;;;;;5000747;28;20401;-88
2022/09/26 08:02:20;;;;;;;0.30;0.30;;;;;;;;;;5000735;28;20034;-88
2022/09/26 08:04:46;;;;;;;0.20;0.20;;;;;;;;;;5000269;28;20030;-89
2022/09/26 08:07:12;;;;;;;0.30;0.30;;;;;;;;;;4999956;28;20035;-88
2022/09/26 08:09:38;;;;;;;0.20;0.20;;;;;;;;;;4999795;28;20049;-88
2022/09/26 08:12:04;;;;;;;0.30;0.30;;;;;;;;;;5000162;28;20037;-89
2022/09/26 08:14:30;;;;;;;0.20;0.20;;;;;;;;;;4999936;28;20450;-89
2022/09/26 08:16:56;;;;;;;0.30;0.30;;;;;;;;;;5000420;28;20148;-89
2022/09/26 08:19:24;;;;;;;0.40;0.40;;;;;;;;;;4999865;28;20080;-88
2022/09/26 08:21:50;;;;;;;0.20;0.20;;;;;;;;;;4999709;28;20100;-89
2022/09/26 08:24:16;;;;;;;0.10;0.10;;;;;;;;;;5000210;28;20124;-89
2022/09/26 08:26:42;;;;;;;0.10;0.10;;;;;;;;;;4999941;28;20033;-89
2022/09/26 08:29:10;;;;;;;0.30;0.30;;;;;;;;;;5000192;28;20037;-88
2022/09/26 08:31:37;;;;;;;0.30;0.30;;;;;;;;;;4962964;28;1071359;-88
2022/09/26 08:34:03;;;;;;;0.30;0.30;;;;;;;;;;5000926;28;20046;-90
2022/09/26 08:36:29;;;;;;;0.30;0.30;;;;;;;;;;5000599;28;20037;-89
2022/09/26 08:38:56;;;;;;;0.20;0.20;;;;;;;;;;5000819;28;20037;-89
2022/09/26 08:41:22;;;;;;;0.20;0.20;;;;;;;;;;4997057;28;20030;-89
2022/09/26 08:43:57;;;;;;;0.20;0.20;;;;;;;;;;5000846;28;20044;-89
2022/09/26 08:49:16;;;;;;;0.20;0.20;;;;;;;;;;5013204;28;20526;-89
2022/09/26 08:51:45;;;;;;;0.20;0.20;;;;;;;;;;4996474;28;20034;-88
2022/09/26 08:54:19;;;;;;;0.30;0.30;;;;;;;;;;5000856;28;20049;-89
2022/09/26 08:56:49;;;;;;;0.20;0.20;;;;;;;;;;4999789;28;20093;-89
2022/09/26 08:59:33;;;;;;;0.20;0.20;;;;;;;;;;5000108;28;20075;-89
2022/09/26 09:02:03;;;;;;;0.40;0.40;;;;;;;;;;4994587;28;20042;-88
2022/09/26 09:04:48;;;;;;;0.20;0.20;;;;;;;;;;5000114;28;20124;-88
2022/09/26 09:07:22;;;;;;;0.10;0.10;;;;;;;;;;4999974;28;20043;-89
2022/09/26 09:09:49;;;;;;;0.20;0.20;;;;;;;;;;5000034;28;20117;-89
2022/09/26 09:12:35;;;;;;;0.20;0.20;;;;;;;;;;5016430;28;20073;-88
2022/09/26 09:15:14;;;;;;;0.20;0.20;;;;;;;;;;4993333;28;20042;-88
2022/09/26 09:17:40;;;;;;;0.20;0.20;;;;;;;;;;4999930;28;20033;-89
2022/09/26 09:20:12;;;;;;;0.20;0.20;;;;;;;;;;4999439;28;20044;-89
2022/09/26 09:22:57;;;;;;;0.20;0.20;;;;;;;;;;5000015;28;20482;-88
2022/09/26 09:25:23;;;;;;;0.25;0.25;;;;;;;;;;4993276;28;20371;-88
2022/09/26 09:28:02;;;;;;;0.20;0.20;;;;;;;;;;4995410;28;20052;-88
2022/09/26 09:30:36;;;;;;;0.17;0.17;;;;;;;;;;4996402;28;20411;-89
2022/09/26 09:33:10;;;;;;;0.10;0.10;;;;;;;;;;4998933;28;20041;-88
2022/09/26 09:35:39;;;;;;;0.20;0.20;;;;;;;;;;4999624;28;20361;-89
2022/09/26 09:38:06;;;;;;;0.20;0.20;;;;;;;;;;5015919;28;20126;-89
2022/09/26 09:40:38;;;;;;;0.30;0.30;;;;;;;;;;4999381;28;20044;-88
2022/09/26 09:43:13;;;;;;;0.28;0.28;;;;;;;;;;5015923;28;20549;-88
2022/09/26 09:45:50;;;;;;;0.35;0.35;;;;;;;;;;4999514;28;20041;-88
2022/09/26 09:48:16;;;;;;;0.20;0.20;;;;;;;;;;5015632;28;20470;-89
2022/09/26 09:50:42;;;;;;;0.17;0.17;;;;;;;;;;4999258;28;20506;-89
2022/09/26 09:53:46;;;;;;;0.20;0.20;;;;;;;;;;4999131;28;20037;-89
2022/09/26 09:56:33;;;;;;;0.10;0.10;;;;;;;;;;4920535;29;20082;-88
2022/09/26 09:59:08;;;;;;;0.30;0.30;;;;;;;;;;4922230;29;20044;-88
2022/09/26 10:01:40;;;;;;;0.10;0.10;;;;;;;;;;4968618;28;20042;-88
2022/09/26 10:04:22;;;;;;;0.20;0.20;;;;;;;;;;4999034;28;20132;-88
2022/09/26 10:06:48;;;;;;;0.20;0.20;;;;;;;;;;4991514;28;20065;-89
2022/09/26 10:09:37;;;;;;;0.20;0.20;;;;;;;;;;4999138;28;20095;-89
2022/09/26 10:12:29;;;;;;;0.30;0.30;;;;;;;;;;4997232;28;20091;-89
2022/09/26 10:15:01;;;;;;;0.20;0.20;;;;;;;;;;4992331;28;20056;-89
2022/09/26 10:17:28;;;;;;;0.25;0.25;;;;;;;;;;5015492;28;20076;-88
2022/09/26 10:19:54;;;;;;;0.10;0.10;;;;;;;;;;4999104;28;20092;-88
2022/09/26 10:22:28;;;;;;;0.13;0.13;;;;;;;;;;4998764;28;20089;-88
2022/09/26 10:25:00;;;;;;;0.20;0.20;;;;;;;;;;4999220;28;20045;-88
2022/09/26 10:27:39;;;;;;;0.20;0.20;;;;;;;;;;4999042;28;20390;-89
2022/09/26 10:30:17;;;;;;;0.17;0.17;;;;;;;;;;4999056;28;20390;-89
2022/09/26 10:32:46;;;;;;;0.20;0.20;;;;;;;;;;4998736;28;20041;-89
2022/09/26 10:35:17;;;;;;;0.20;0.20;;;;;;;;;;4999088;28;20033;-89
2022/09/26 10:37:47;;;;;;;0.20;0.20;;;;;;;;;;4998814;28;20602;-88
2022/09/26 10:43:32;;;;;;;0.13;0.13;;;;;;;;;;5015328;28;20510;-88
2022/09/26 10:46:10;;;;;;;0.10;0.10;;;;;;;;;;4996874;28;20087;-89
2022/09/26 10:48:42;;;;;;;0.20;0.20;;;;;;;;;;4998773;28;20064;-88
2022/09/26 10:51:08;;;;;;;0.20;0.20;;;;;;;;;;4998596;28;20439;-88
2022/09/26 10:53:36;;;;;;;0.13;0.13;;;;;;;;;;4998376;28;20513;-87
2022/09/26 10:56:06;;;;;;;0.20;0.20;;;;;;;;;;4998543;28;20133;-88
2022/09/26 10:58:38;;;;;;;0.30;0.30;;;;;;;;;;4998625;28;20399;-89
2022/09/26 11:01:05;;;;;;;0.22;0.22;;;;;;;;;;4998341;28;20091;-88
2022/09/26 11:03:42;;;;;;;0.20;0.20;;;;;;;;;;4998598;28;20041;-88
2022/09/26 11:06:21;;;;;;;0.20;0.20;;;;;;;;;;5014886;28;20045;-87
2022/09/26 11:08:50;;;;;;;0.15;0.15;;;;;;;;;;4994993;28;20123;-87
2022/09/26 11:11:20;;;;;;;0.20;0.20;;;;;;;;;;4986739;28;20120;-87
2022/09/26 11:13:48;;;;;;;0.30;0.30;;;;;;;;;;4994341;28;20045;-87
2022/09/26 11:16:17;;;;;;;0.20;0.20;;;;;;;;;;4989974;28;20402;-86
2022/09/26 11:18:43;;;;;;;0.20;0.20;;;;;;;;;;4998315;28;20041;-88
2022/09/26 11:21:25;;;;;;;0.20;0.20;;;;;;;;;;5001234;28;20034;-88
2022/09/26 11:24:03;;;;;;;0.20;0.20;;;;;;;;;;4999039;28;20438;-87
2022/09/26 11:26:38;;;;;;;0.20;0.20;;;;;;;;;;5001544;28;20041;-89
2022/09/26 11:29:13;;;;;;;0.22;0.22;;;;;;;;;;5017714;28;20502;-89
2022/09/26 11:31:41;;;;;;;;;;;;;;;;;;5002253;28;20084;-88
2022/09/26 11:34:11;;;;;;;0.20;0.20;;;;;;;;;;5001482;28;19924;-88
2022/09/26 11:36:49;;;;;;;0.30;0.30;;;;;;;;;;5018489;28;20041;-88
2022/09/26 11:39:31;;;;;;;0.30;0.30;;;;;;;;;;4994072;28;20038;-87
2022/09/26 11:42:00;;;;;;;0.20;0.20;;;;;;;;;;5001817;28;20409;-88
2022/09/26 11:44:49;;;;;;;0.20;0.20;;;;;;;;;;5017943;28;20029;-89
2022/09/26 11:47:24;;;;;;;0.20;0.20;;;;;;;;;;4998020;28;20037;-88
2022/09/26 11:49:50;;;;;;;;;;;;;;;;;;5001556;28;20562;-88
2022/09/26 11:52:36;;;;;;;0.20;0.20;;;;;;;;;;5001437;28;19996;-88
2022/09/26 11:55:17;;;;;;;0.20;0.20;;;;;;;;;;5000928;28;20042;-89
2022/09/26 11:58:00;;;;;;;0.20;0.20;;;;;;;;;;4985522;28;20037;-89
2022/09/26 12:00:35;;;;;;;0.10;0.10;;;;;;;;;;4999244;28;20077;-88
2022/09/26 12:03:20;;;;;;;0.20;0.20;;;;;;;;;;5017810;28;20041;-88
2022/09/26 12:05:47;;;;;;;0.13;0.13;;;;;;;;;;4998325;28;20073;-89
2022/09/26 12:08:20;;;;;;;0.28;0.28;;;;;;;;;;5001508;28;20060;-88
2022/09/26 12:10:49;;;;;;;0.30;0.30;;;;;;;;;;4995000;28;20549;-89
2022/09/26 12:13:33;;;;;;;0.20;0.20;;;;;;;;;;5001535;28;20041;-88
2022/09/26 12:15:59;;;;;;;0.20;0.20;;;;;;;;;;5000776;28;20041;-88
2022/09/26 12:18:33;;;;;;;0.20;0.20;;;;;;;;;;5001005;28;20557;-88
2022/09/26 12:21:05;;;;;;;0.20;0.20;;;;;;;;;;5000453;28;20041;-88
2022/09/26 12:23:43;;;;;;;0.20;0.20;;;;;;;;;;5000587;28;20073;-88
2022/09/26 12:26:09;;;;;;;0.22;0.22;;;;;;;;;;4992801;28;20041;-88
2022/09/26 12:28:47;;;;;;;0.30;0.30;;;;;;;;;;5000473;28;20040;-87
2022/09/26 12:31:23;;;;;;;0.20;0.20;;;;;;;;;;4995890;28;20418;-88
2022/09/26 12:33:49;;;;;;;;;;;;;;;;;;5017008;28;20044;-88
2022/09/26 12:36:20;;;;;;;0.30;0.30;;;;;;;;;;5000383;28;19921;-87
2022/09/26 12:39:07;;;;;;;0.22;0.22;;;;;;;;;;4999932;28;20037;-87
2022/09/26 12:41:39;;;;;;;0.13;0.13;;;;;;;;;;5000384;28;20080;-88
2022/09/26 12:44:23;;;;;;;0.20;0.20;;;;;;;;;;4999773;28;20044;-87
2022/09/26 12:46:49;;;;;;;0.10;0.10;;;;;;;;;;4995183;28;20042;-87
2022/09/26 12:49:21;;;;;;;0.30;0.30;;;;;;;;;;4999723;28;20111;-87
2022/09/26 12:51:51;;;;;;;0.20;0.20;;;;;;;;;;4999739;28;20041;-87
2022/09/26 12:54:20;;;;;;;0.30;0.30;;;;;;;;;;4999936;28;20048;-87
2022/09/26 12:56:50;;;;;;;0.20;0.20;;;;;;;;;;4999344;28;20069;-87
2022/09/26 12:59:22;;;;;;;0.20;0.20;;;;;;;;;;4999203;28;20033;-87
2022/09/26 13:01:59;;;;;;;0.30;0.30;;;;;;;;;;5000087;28;20037;-87
2022/09/26 13:04:31;;;;;;;0.30;0.30;;;;;;;;;;4999441;28;20040;-87
2022/09/26 13:06:57;;;;;;;0.22;0.22;;;;;;;;;;5000142;28;20056;-88
2022/09/26 13:09:32;;;;;;;0.20;0.20;;;;;;;;;;4998777;28;20037;-89
2022/09/26 13:11:58;;;;;;;;;;;;;;;;;;5016407;28;20087;-87
2022/09/26 13:14:42;;;;;;;0.20;0.20;;;;;;;;;;4999184;28;19920;-87
2022/09/26 13:17:13;;;;;;;0.30;0.30;;;;;;;;;;4992130;28;20041;-89
2022/09/26 13:19:39;;;;;;;0.20;0.20;;;;;;;;;;4991782;28;20037;-88
2022/09/26 13:22:26;;;;;;;0.20;0.20;;;;;;;;;;4999531;28;20044;-88
2022/09/26 13:24:59;;;;;;;0.10;0.10;;;;;;;;;;4983095;28;20060;-87
2022/09/26 13:27:27;;;;;;;0.30;0.30;;;;;;;;;;4999816;28;20049;-88
2022/09/26 13:29:58;;;;;;;0.10;0.10;;;;;;;;;;5015722;28;20060;-88
2022/09/26 13:32:46;;;;;;;0.17;0.17;;;;;;;;;;4999489;28;20072;-88
2022/09/26 13:35:12;;;;;;;0.20;0.20;;;;;;;;;;4957136;28;20613;-89
2022/09/26 13:37:46;;;;;;;0.20;0.20;;;;;;;;;;4999355;28;20084;-88
2022/09/26 13:40:31;;;;;;;0.20;0.20;;;;;;;;;;4992409;28;20033;-88
2022/09/26 13:43:04;;;;;;;1.33;1.23;;;;;;;;;;4999221;28;20049;-88
2022/09/26 13:45:43;;;;;;;0.20;0.20;;;;;;;;;;5015812;28;20132;-89
2022/09/26 13:48:36;;;;;;;0.50;0.50;;;;;;;;;;5015460;28;20434;-88
2022/09/26 13:51:17;;;;;;;0.10;0.10;;;;;;;;;;4996521;28;20418;-89
2022/09/26 13:53:54;;;;;;;0.20;0.20;;;;;;;;;;5013366;28;20050;-88
2022/09/26 13:56:35;;;;;;;0.20;0.20;;;;;;;;;;5015462;28;20509;-89
2022/09/26 13:59:09;;;;;;;0.10;0.10;;;;;;;;;;4998848;28;20077;-90
2022/09/26 14:01:41;;;;;;;0.10;0.10;;;;;;;;;;4995857;28;20029;-88
2022/09/26 14:04:18;;;;;;;0.20;0.20;;;;;;;;;;4995055;28;20091;-88
2022/09/26 14:09:22;;;;;;;0.20;0.20;;;;;;;;;;5004892;28;20041;-88
2022/09/26 14:10:02;;;;;;;0.10;0.10;;;;;;;;;;5011254;28;20048;-88
2022/09/26 14:12:47;;;;;;;0.20;0.20;;;;;;;;;;4998782;28;20124;-88
2022/09/26 14:15:15;;;;;;;0.20;0.20;;;;;;;;;;4996429;28;20041;-88
2022/09/26 14:17:41;;;;;;;0.20;0.20;;;;;;;;;;4998940;28;20040;-88
2022/09/26 14:20:15;;;;;;;0.20;0.20;;;;;;;;;;5014928;28;20383;-89
2022/09/26 14:22:50;;;;;;;0.20;0.20;;;;;;;;;;4999121;28;20482;-88
2022/09/26 14:25:35;;;;;;;0.20;0.20;;;;;;;;;;4997754;28;20045;-88
2022/09/26 14:28:31;;;;;;;0.08;0.08;;;;;;;;;;4997356;28;20045;-89
2022/09/26 14:31:18;;;;;;;0.10;0.10;;;;;;;;;;4980893;28;20053;-88
2022/09/26 14:33:45;;;;;;;0.20;0.20;;;;;;;;;;4994327;28;20120;-88
2022/09/26 14:36:17;;;;;;;0.28;0.28;;;;;;;;;;4998701;28;20129;-88
2022/09/26 14:38:48;;;;;;;0.10;0.10;;;;;;;;;;4998843;28;20030;-88
2022/09/26 14:41:18;;;;;;;0.22;0.22;;;;;;;;;;4998493;28;20045;-88
2022/09/26 14:43:44;;;;;;;0.20;0.20;;;;;;;;;;4998377;28;20034;-88
2022/09/26 14:46:16;;;;;;;0.10;0.10;;;;;;;;;;4998506;28;20072;-88
2022/09/26 14:48:42;;;;;;;0.20;0.20;;;;;;;;;;4998888;28;20037;-88
2022/09/26 14:51:14;;;;;;;0.20;0.20;;;;;;;;;;4998276;28;20393;-89
2022/09/26 14:53:49;;;;;;;0.20;0.20;;;;;;;;;;5015187;28;20046;-88
2022/09/26 14:56:15;;;;;;;;;;;;;;;;;;5002662;28;20143;-88
2022/09/26 14:58:41;;;;;;;0.10;0.10;;;;;;;;;;5018592;28;19967;-88
2022/09/26 15:01:13;;;;;;;0.10;0.10;;;;;;;;;;5018771;28;20099;-88
2022/09/26 15:03:40;;;;;;;0.17;0.17;;;;;;;;;;5002568;28;20033;-89
2022/09/26 15:06:07;;;;;;;0.30;0.30;;;;;;;;;;5002277;28;20041;-88
2022/09/26 15:08:35;;;;;;;0.10;0.10;;;;;;;;;;5002301;28;20041;-87
2022/09/26 15:11:01;;;;;;;0.20;0.20;;;;;;;;;;5002485;28;20380;-88
2022/09/26 15:13:44;;;;;;;0.25;0.25;;;;;;;;;;5002173;28;20565;-89
2022/09/26 15:16:25;;;;;;;0.10;0.10;;;;;;;;;;4999383;28;20044;-88
2022/09/26 15:18:57;;;;;;;0.10;0.10;;;;;;;;;;5001856;28;20045;-88
2022/09/26 15:21:25;;;;;;;0.10;0.10;;;;;;;;;;5002161;28;20069;-89
2022/09/26 15:23:53;;;;;;;0.20;0.20;;;;;;;;;;5001930;28;20041;-88